Time;durP1;ratioP1;P1;durP2;ratioP2;P2;SDS_P1;SDS_P2;PMS_P1;PMS_P2;Temp;Humidity;BMP_temperature;BMP_pressure;BME280_temperature;BME280_humidity;BME280_pressure;Samples;Min_cycle;Max_cycle;Signal;HPM_P1;HPM_P2
2022/05/06 00:00:55;;;;;;;10.38;7.35;;;;;;;13.86;60.85;95227.84;4145285;28;20418;-53
2022/05/06 00:02:57;;;;;;;11.15;7.20;;;;;;;13.86;61.21;95229.66;4144657;28;20054;-52
2022/05/06 00:04:58;;;;;;;11.43;6.55;;;;;;;13.85;61.11;95235.88;4144688;28;20740;-55
2022/05/06 00:07:00;;;;;;;14.20;7.82;;;;;;;13.86;60.83;95238.38;4144851;28;20054;-51
2022/05/06 00:09:03;;;;;;;12.18;7.43;;;;;;;13.86;60.72;95234.91;4143442;28;20050;-52
2022/05/06 00:11:05;;;;;;;13.07;7.30;;;;;;;13.72;61.46;95233.75;4145085;28;20430;-56
2022/05/06 00:13:08;;;;;;;11.00;6.90;;;;;;;13.61;61.80;95237.53;4144700;28;20053;-54
2022/05/06 00:15:11;;;;;;;12.07;8.73;;;;;;;13.45;62.38;95232.28;4144846;28;20296;-54
2022/05/06 00:17:14;;;;;;;14.35;7.32;;;;;;;13.34;62.70;95236.06;4144543;28;20244;-54
2022/05/06 00:19:15;;;;;;;11.13;7.72;;;;;;;13.34;62.89;95237.88;4144363;28;20054;-53
2022/05/06 00:21:18;;;;;;;9.20;7.40;;;;;;;13.33;62.63;95237.03;4139737;28;20050;-51
2022/05/06 00:23:19;;;;;;;14.05;8.30;;;;;;;13.31;62.53;95241.63;4126913;28;20104;-51
2022/05/06 00:25:21;;;;;;;13.85;7.75;;;;;;;13.27;62.60;95245.53;4128093;28;20112;-47
2022/05/06 00:27:23;;;;;;;12.77;7.32;;;;;;;13.24;63.19;95246.69;4128127;28;20623;-53
2022/05/06 00:29:24;;;;;;;10.82;7.55;;;;;;;13.18;63.38;95249.16;4127941;28;20050;-53
2022/05/06 00:31:26;;;;;;;9.30;6.85;;;;;;;13.22;63.50;95255.75;4128170;28;20108;-53
2022/05/06 00:33:31;;;;;;;9.02;5.90;;;;;;;13.24;62.72;95248.50;4127638;28;20054;-53
2022/05/06 00:35:33;;;;;;;8.13;6.28;;;;;;;13.28;62.55;95248.06;4127988;28;20167;-53
2022/05/06 00:37:35;;;;;;;10.02;6.43;;;;;;;13.34;62.60;95257.13;4127696;28;20413;-57
2022/05/06 00:39:36;;;;;;;9.65;7.03;;;;;;;13.38;62.23;95249.69;4126900;28;20124;-49
2022/05/06 00:41:38;;;;;;;11.50;5.82;;;;;;;13.41;62.15;95238.88;4128198;28;20050;-52
2022/05/06 00:43:40;;;;;;;7.80;6.38;;;;;;;13.43;62.08;95240.34;4127903;28;20167;-54
2022/05/06 00:45:52;;;;;;;12.88;6.40;;;;;;;13.44;61.99;95242.00;4128145;28;20051;-57
2022/05/06 00:47:54;;;;;;;10.38;6.15;;;;;;;13.45;61.78;95248.91;4132046;28;20049;-54
2022/05/06 00:49:56;;;;;;;7.20;6.22;;;;;;;13.41;61.62;95252.03;4144231;28;20065;-54
2022/05/06 00:51:58;;;;;;;9.35;6.50;;;;;;;13.42;61.92;95243.97;4143858;28;20068;-55
2022/05/06 00:54:00;;;;;;;9.15;5.88;;;;;;;13.47;61.61;95243.47;4137993;28;20166;-55
2022/05/06 00:56:03;;;;;;;11.85;6.20;;;;;;;13.40;61.63;95242.47;4143932;28;20062;-54
2022/05/06 00:58:06;;;;;;;7.18;5.90;;;;;;;13.40;61.85;95253.84;4159193;28;20128;-57
2022/05/06 01:00:20;;;;;;;8.10;6.20;;;;;;;13.43;61.67;95256.13;4144094;28;20115;-56
2022/05/06 01:02:23;;;;;;;9.38;5.90;;;;;;;13.47;61.88;95246.94;4144210;28;20054;-55
2022/05/06 01:04:29;;;;;;;11.25;7.00;;;;;;;13.37;61.80;95256.78;4143950;28;20050;-56
2022/05/06 01:06:31;;;;;;;12.10;7.15;;;;;;;13.38;62.24;95261.06;4143886;28;20083;-53
2022/05/06 01:08:34;;;;;;;12.05;6.60;;;;;;;13.43;61.83;95252.69;4142602;28;20103;-52
2022/05/06 01:10:37;;;;;;;9.35;7.38;;;;;;;13.40;61.91;95248.56;4143742;28;20053;-56
2022/05/06 01:12:39;;;;;;;10.48;7.90;;;;;;;13.42;62.13;95248.38;4142311;28;20053;-52
2022/05/06 01:14:40;;;;;;;10.65;7.30;;;;;;;13.40;62.36;95259.09;4143690;28;20106;-56
2022/05/06 01:16:42;;;;;;;11.20;6.93;;;;;;;13.34;62.48;95266.81;4143784;28;20053;-54
2022/05/06 01:18:44;;;;;;;12.90;7.97;;;;;;;13.24;62.58;95257.22;4143317;28;20066;-53
2022/05/06 01:20:49;;;;;;;11.18;7.55;;;;;;;13.19;62.91;95256.06;4143617;28;20502;-53
2022/05/06 01:22:56;;;;;;;11.60;7.57;;;;;;;13.19;63.13;95248.19;4143116;28;20174;-53
2022/05/06 01:25:00;;;;;;;11.40;7.47;;;;;;;13.18;62.96;95257.03;4143472;28;20054;-53
2022/05/06 01:27:03;;;;;;;;;;;;;;;13.21;62.81;95262.00;4159076;28;20112;-52
2022/05/06 01:29:06;;;;;;;10.18;6.32;;;;;;;13.22;62.70;95250.47;4143509;28;19921;-52
2022/05/06 01:31:08;;;;;;;13.88;6.80;;;;;;;13.18;62.74;95251.78;4143501;28;20146;-54
2022/05/06 01:33:12;;;;;;;10.60;7.50;;;;;;;13.11;63.29;95252.41;4134910;28;20327;-54
2022/05/06 01:35:14;;;;;;;11.43;7.32;;;;;;;13.10;63.08;95244.72;4143858;28;20045;-52
2022/05/06 01:37:17;;;;;;;10.88;7.05;;;;;;;13.11;62.90;95235.81;4142123;28;20061;-54
2022/05/06 01:39:33;;;;;;;11.82;8.10;;;;;;;13.11;63.09;95235.81;4140459;28;20585;-54
2022/05/06 01:41:37;;;;;;;11.30;6.95;;;;;;;13.11;62.97;95243.72;4143151;28;20054;-55
2022/05/06 01:43:43;;;;;;;11.55;7.72;;;;;;;13.08;63.06;95242.25;4143365;28;20426;-54
2022/05/06 01:45:47;;;;;;;11.00;6.95;;;;;;;13.07;63.26;95243.22;4142417;28;20046;-54
2022/05/06 01:47:52;;;;;;;9.48;7.30;;;;;;;13.06;63.30;95236.31;4139372;28;20047;-57
2022/05/06 01:49:56;;;;;;;9.77;7.38;;;;;;;13.06;63.20;95238.94;4143094;28;20139;-52
2022/05/06 01:51:59;;;;;;;9.52;6.93;;;;;;;12.98;63.29;95238.91;4141897;28;20065;-53
2022/05/06 01:54:01;;;;;;;17.58;8.07;;;;;;;12.90;63.92;95236.25;4139366;28;20100;-54
2022/05/06 01:56:03;;;;;;;10.57;7.20;;;;;;;12.86;63.49;95235.78;4140815;28;20698;-54
2022/05/06 01:58:05;;;;;;;9.73;7.43;;;;;;;12.94;63.45;95231.50;4140925;28;20411;-53
2022/05/06 02:00:07;;;;;;;9.23;7.38;;;;;;;12.97;62.97;95234.66;4142411;28;20050;-52
2022/05/06 02:02:09;;;;;;;10.40;7.57;;;;;;;13.00;63.37;95244.03;4143090;28;20447;-55
2022/05/06 02:06:32;;;;;;;12.38;7.32;;;;;;;13.04;63.22;95237.47;4142963;28;20455;-52
2022/05/06 02:08:33;;;;;;;11.23;6.88;;;;;;;13.04;62.87;95243.53;4141486;28;20131;-56
2022/05/06 02:10:37;;;;;;;11.27;7.20;;;;;;;13.03;63.07;95247.13;4140652;28;20135;-53
2022/05/06 02:12:39;;;;;;;;;;;;;;;13.08;63.18;95246.69;4143215;28;20495;-54
2022/05/06 02:14:40;;;;;;;10.02;7.15;;;;;;;13.08;62.46;95241.41;4142586;28;19975;-58
2022/05/06 02:16:42;;;;;;;10.13;6.70;;;;;;;13.03;62.94;95249.75;4142695;28;20128;-57
2022/05/06 02:18:44;;;;;;;9.60;6.93;;;;;;;13.01;62.90;95246.47;4142470;28;20050;-53
2022/05/06 02:20:46;;;;;;;9.85;6.78;;;;;;;13.01;62.82;95245.66;4142482;28;20053;-56
2022/05/06 02:22:47;;;;;;;9.43;6.68;;;;;;;12.96;62.92;95248.78;4142823;28;20062;-54
2022/05/06 02:24:49;;;;;;;12.57;7.07;;;;;;;12.93;62.89;95248.25;4141143;28;20089;-52
2022/05/06 02:26:51;;;;;;;10.80;6.97;;;;;;;12.90;62.76;95246.78;4142794;28;20054;-54
2022/05/06 02:28:53;;;;;;;11.82;7.07;;;;;;;12.89;62.93;95248.59;4141239;28;20587;-55
2022/05/06 02:33:16;;;;;;;9.75;6.55;;;;;;;12.95;62.81;95243.66;4142148;28;20050;-53
2022/05/06 02:35:18;;;;;;;9.32;6.78;;;;;;;12.89;63.10;95239.88;4142556;28;20430;-52
2022/05/06 02:37:19;;;;;;;12.27;7.32;;;;;;;12.85;63.35;95243.81;4142505;28;20058;-54
2022/05/06 02:39:21;;;;;;;10.07;6.95;;;;;;;12.83;63.73;95241.34;4140816;28;20084;-54
2022/05/06 02:41:23;;;;;;;12.95;7.15;;;;;;;12.81;63.66;95247.75;4142673;28;20244;-58
2022/05/06 02:43:25;;;;;;;10.95;7.85;;;;;;;12.82;63.27;95244.97;4142524;28;20526;-54
2022/05/06 02:45:27;;;;;;;13.38;7.30;;;;;;;12.84;62.99;95247.41;4142477;28;20054;-55
2022/05/06 02:47:29;;;;;;;10.30;6.80;;;;;;;12.89;63.18;95245.16;4141191;28;20049;-54
2022/05/06 02:49:31;;;;;;;9.93;6.43;;;;;;;12.90;62.94;95242.34;4126093;28;20054;-51
2022/05/06 02:51:33;;;;;;;13.38;7.70;;;;;;;12.90;63.03;95242.34;4126108;28;20050;-56
2022/05/06 02:53:34;;;;;;;12.02;7.32;;;;;;;12.89;62.90;95245.16;4124277;28;20065;-54
2022/05/06 02:55:37;;;;;;;10.25;6.75;;;;;;;12.90;63.05;95241.53;4131772;28;20054;-54
2022/05/06 02:57:40;;;;;;;10.70;6.57;;;;;;;12.88;63.00;95244.34;4125852;28;20058;-57
2022/05/06 02:59:41;;;;;;;10.27;6.55;;;;;;;12.85;63.12;95243.81;4126130;28;20427;-55
2022/05/06 03:01:44;;;;;;;9.38;6.60;;;;;;;12.84;63.10;95252.66;4126153;28;20050;-53
2022/05/06 03:03:46;;;;;;;13.63;6.75;;;;;;;12.83;63.16;95249.22;4125702;28;20423;-55
2022/05/06 03:05:48;;;;;;;11.15;6.53;;;;;;;12.81;62.92;95248.56;4138396;28;20053;-54
2022/05/06 03:07:50;;;;;;;10.80;6.47;;;;;;;12.81;63.49;95247.75;4141501;28;20062;-53
2022/05/06 03:09:54;;;;;;;11.98;7.03;;;;;;;12.78;63.07;95258.59;4141379;28;20126;-52
2022/05/06 03:11:57;;;;;;;11.98;6.97;;;;;;;12.72;63.07;95253.97;4142128;28;20593;-54
2022/05/06 03:13:58;;;;;;;11.98;6.72;;;;;;;12.45;63.83;95253.16;4142166;28;20050;-53
2022/05/06 03:16:00;;;;;;;12.25;7.13;;;;;;;11.99;64.89;95263.09;4146976;28;20212;-54
2022/05/06 03:18:02;;;;;;;10.70;7.20;;;;;;;11.72;66.05;95256.94;4161332;28;20119;-56
2022/05/06 03:20:07;;;;;;;11.48;7.03;;;;;;;11.52;66.76;95253.69;4162168;28;20053;-54
2022/05/06 03:22:09;;;;;;;10.10;6.80;;;;;;;11.31;67.45;95253.16;4149738;28;20557;-54
2022/05/06 03:24:11;;;;;;;11.10;7.75;;;;;;;11.09;68.62;95251.81;4142558;28;20100;-57
2022/05/06 03:26:13;;;;;;;13.82;8.57;;;;;;;11.00;69.23;95264.81;4145549;28;20152;-57
2022/05/06 03:28:15;;;;;;;15.75;8.05;;;;;;;10.76;70.02;95268.00;4145230;28;20053;-53
2022/05/06 03:30:16;;;;;;;12.65;8.77;;;;;;;10.85;70.06;95264.50;4145594;28;20058;-54
2022/05/06 03:32:18;;;;;;;9.70;7.63;;;;;;;11.06;69.93;95263.41;4145456;28;20050;-54
2022/05/06 03:34:20;;;;;;;14.23;7.55;;;;;;;11.30;68.90;95262.00;4143605;28;20080;-59
2022/05/06 03:36:22;;;;;;;9.60;7.40;;;;;;;11.54;68.11;95270.09;4143573;28;20058;-53
2022/05/06 03:38:24;;;;;;;11.70;8.05;;;;;;;11.72;67.13;95270.06;4143750;28;20145;-53
2022/05/06 03:40:26;;;;;;;12.32;7.78;;;;;;;11.80;66.99;95278.00;4145333;28;20103;-52
2022/05/06 03:42:27;;;;;;;12.75;8.90;;;;;;;11.79;66.62;95280.81;4145017;28;20057;-53
2022/05/06 03:44:29;;;;;;;13.00;10.43;;;;;;;11.50;67.51;95279.25;4145071;28;20053;-54
2022/05/06 03:46:31;;;;;;;13.80;10.13;;;;;;;11.46;68.41;95283.13;4144812;28;20054;-53
2022/05/06 03:48:36;;;;;;;14.20;9.65;;;;;;;11.58;67.90;95279.31;4134795;28;20129;-52
2022/05/06 03:52:59;;;;;;;14.40;10.23;;;;;;;11.83;67.20;95284.75;4127284;28;20050;-52
2022/05/06 03:55:02;;;;;;;12.30;10.05;;;;;;;11.97;66.75;95291.31;4136832;28;20050;-53
2022/05/06 03:57:04;;;;;;;14.20;9.90;;;;;;;12.06;66.08;95293.00;4140226;28;20065;-53
2022/05/06 03:59:06;;;;;;;14.93;9.35;;;;;;;12.12;65.86;95289.75;4144924;28;20136;-52
2022/05/06 04:01:07;;;;;;;13.80;9.82;;;;;;;12.16;65.82;95296.38;4145030;28;20218;-54
2022/05/06 04:03:09;;;;;;;9.80;8.52;;;;;;;12.20;65.50;95292.44;4144868;28;20089;-53
2022/05/06 04:05:11;;;;;;;13.35;9.57;;;;;;;12.26;65.27;95294.47;4144580;28;20101;-54
2022/05/06 04:07:14;;;;;;;9.82;8.77;;;;;;;12.33;65.06;95301.72;4145250;28;20050;-52
2022/05/06 04:09:16;;;;;;;12.80;9.32;;;;;;;12.32;65.04;95300.06;4143483;28;20050;-53
2022/05/06 04:11:20;;;;;;;13.85;9.50;;;;;;;12.20;65.79;95302.16;4144755;28;20119;-53
2022/05/06 04:13:21;;;;;;;12.00;9.18;;;;;;;12.18;65.72;95304.09;4144728;28;20049;-57
2022/05/06 04:15:23;;;;;;;12.18;8.98;;;;;;;11.87;66.58;95301.84;4144763;28;20369;-54
2022/05/06 04:17:25;;;;;;;12.57;8.65;;;;;;;11.83;67.09;95300.50;4160509;28;20049;-55
2022/05/06 04:19:27;;;;;;;13.27;8.38;;;;;;;11.64;67.19;95298.91;4160665;28;20466;-56
2022/05/06 04:23:49;;;;;;;12.63;8.55;;;;;;;11.40;68.95;95305.56;4142936;28;20053;-51
2022/05/06 04:25:51;;;;;;;14.65;9.18;;;;;;;11.60;68.49;95300.16;4144628;28;20058;-54
2022/05/06 04:27:52;;;;;;;14.65;8.73;;;;;;;11.76;67.65;95304.72;4143713;28;20050;-53
2022/05/06 04:29:54;;;;;;;13.70;8.77;;;;;;;11.95;67.07;95311.63;4144755;28;20054;-54
2022/05/06 04:31:56;;;;;;;16.15;9.40;;;;;;;12.05;66.41;95313.19;4144401;28;20061;-54
2022/05/06 04:33:58;;;;;;;13.75;7.82;;;;;;;12.19;65.96;95317.06;4144177;28;20050;-54
2022/05/06 04:36:00;;;;;;;17.20;9.50;;;;;;;12.26;65.67;95318.09;4144534;28;20050;-52
2022/05/06 04:38:03;;;;;;;12.32;9.63;;;;;;;12.29;65.20;95322.22;4142872;28;20062;-52
2022/05/06 04:40:05;;;;;;;12.35;8.63;;;;;;;12.34;65.22;95314.69;4144370;28;20124;-51
2022/05/06 04:42:07;;;;;;;12.27;8.43;;;;;;;12.39;65.27;95317.69;4144429;28;20050;-52
2022/05/06 04:44:09;;;;;;;14.70;9.23;;;;;;;12.44;64.95;95311.97;4144349;28;20054;-55
2022/05/06 04:46:10;;;;;;;15.73;9.45;;;;;;;12.46;65.05;95318.72;4144162;28;20053;-52
2022/05/06 04:48:12;;;;;;;12.13;8.68;;;;;;;12.49;64.70;95315.75;4143616;28;20544;-53
2022/05/06 04:50:14;;;;;;;12.25;9.35;;;;;;;12.55;64.68;95324.03;4144335;28;20053;-52
2022/05/06 04:52:16;;;;;;;14.43;8.82;;;;;;;12.58;64.42;95316.63;4144206;28;20053;-55
2022/05/06 04:54:18;;;;;;;15.82;9.18;;;;;;;12.59;64.60;95315.66;4142671;28;20053;-51
2022/05/06 04:56:21;;;;;;;15.93;8.98;;;;;;;12.61;64.65;95316.34;4143499;28;20061;-55
2022/05/06 04:58:23;;;;;;;12.63;9.18;;;;;;;12.68;64.41;95321.78;4139965;28;20090;-51
2022/05/06 05:00:25;;;;;;;13.98;9.55;;;;;;;12.77;64.22;95322.66;4144123;28;20053;-54
2022/05/06 05:02:27;;;;;;;12.68;8.73;;;;;;;12.84;64.10;95323.66;4144306;28;20057;-54
2022/05/06 05:04:30;;;;;;;14.27;9.35;;;;;;;12.81;63.84;95324.81;4143597;28;20129;-55
2022/05/06 05:06:33;;;;;;;14.65;9.88;;;;;;;12.86;64.05;95332.22;4143995;28;20581;-53
2022/05/06 05:08:34;;;;;;;14.20;9.43;;;;;;;12.87;63.79;95336.50;4142681;28;20124;-54
2022/05/06 05:10:36;;;;;;;15.32;9.10;;;;;;;12.91;63.79;95341.28;4144041;28;20568;-52
2022/05/06 05:12:38;;;;;;;21.30;10.10;;;;;;;13.01;63.43;95343.78;4143856;28;20049;-53
2022/05/06 05:14:41;;;;;;;16.73;10.45;;;;;;;12.99;63.60;95340.53;4143844;28;20119;-54
2022/05/06 05:16:43;;;;;;;13.40;10.10;;;;;;;12.85;63.21;95343.72;4154155;28;20057;-58
2022/05/06 05:18:45;;;;;;;12.07;10.00;;;;;;;12.44;64.80;95341.69;4159671;28;20084;-54
2022/05/06 05:20:47;;;;;;;15.77;10.52;;;;;;;12.26;65.88;95339.13;4159344;28;20092;-54
2022/05/06 05:22:48;;;;;;;15.07;11.18;;;;;;;12.15;66.16;95341.97;4143536;28;20128;-54
2022/05/06 05:24:50;;;;;;;15.35;10.93;;;;;;;12.26;65.62;95338.28;4142965;28;20123;-55
2022/05/06 05:26:54;;;;;;;16.65;10.80;;;;;;;12.43;65.69;95340.06;4142237;28;20053;-54
2022/05/06 05:29:02;;;;;;;15.77;10.15;;;;;;;12.67;65.15;95336.75;4143807;28;20126;-54
2022/05/06 05:31:04;;;;;;;16.38;11.25;;;;;;;12.85;64.33;95338.47;4143635;28;20491;-53
2022/05/06 05:33:06;;;;;;;24.02;10.90;;;;;;;12.79;64.10;95339.09;4143193;28;20625;-53
2022/05/06 05:35:09;;;;;;;18.92;11.57;;;;;;;12.64;64.64;95333.59;4143665;28;20123;-54
2022/05/06 05:37:10;;;;;;;15.52;10.93;;;;;;;12.70;64.25;95339.03;4143625;28;20155;-53
2022/05/06 05:39:12;;;;;;;14.88;10.43;;;;;;;12.73;64.29;95342.34;4141738;28;20057;-56
2022/05/06 05:41:14;;;;;;;20.13;9.30;;;;;;;12.86;63.78;95334.84;4143079;28;20439;-53
2022/05/06 05:48:42;;;;;;;18.17;10.32;;;;;;;13.37;62.48;95329.66;4142260;28;20053;-55
2022/05/06 05:50:19;;;;;;;13.40;10.18;;;;;;;13.56;61.64;95336.44;4149277;28;20045;-55
2022/05/06 05:52:20;;;;;;;15.07;9.50;;;;;;;13.54;61.22;95331.31;4143319;28;20062;-56
2022/05/06 05:54:22;;;;;;;17.77;10.23;;;;;;;13.64;61.46;95328.56;4141701;28;20107;-55
2022/05/06 05:56:24;;;;;;;19.10;9.13;;;;;;;13.80;60.88;95322.47;4143326;28;20434;-53
2022/05/06 05:58:26;;;;;;;15.50;10.00;;;;;;;13.91;60.14;95327.41;4139061;28;20053;-52
2022/05/06 06:00:28;;;;;;;15.57;10.20;;;;;;;13.97;60.09;95325.94;4128265;28;20046;-54
2022/05/06 06:02:30;;;;;;;15.35;9.93;;;;;;;14.03;59.91;95330.56;4126853;28;20527;-56
2022/05/06 06:04:32;;;;;;;16.38;10.30;;;;;;;14.16;60.02;95328.25;4128646;28;20054;-55
2022/05/06 06:06:34;;;;;;;19.33;9.27;;;;;;;14.21;59.05;95325.09;4143251;28;20104;-55
2022/05/06 06:08:35;;;;;;;12.77;9.35;;;;;;;14.23;58.79;95331.84;4141895;28;20054;-53
2022/05/06 06:10:38;;;;;;;16.88;9.98;;;;;;;14.15;59.13;95326.59;4143199;28;20107;-55
2022/05/06 06:12:40;;;;;;;12.23;9.10;;;;;;;14.19;58.85;95333.16;4143002;28;20065;-55
2022/05/06 06:14:42;;;;;;;11.55;7.97;;;;;;;14.07;59.09;95329.25;4142979;28;20057;-55
2022/05/06 06:16:44;;;;;;;12.18;7.68;;;;;;;13.97;58.69;95323.31;4153050;28;20041;-54
2022/05/06 06:18:47;;;;;;;12.15;7.97;;;;;;;13.93;59.52;95328.88;4158933;28;20050;-55
2022/05/06 06:20:48;;;;;;;13.80;8.73;;;;;;;14.08;59.41;95325.59;4158382;28;20381;-55
2022/05/06 06:22:50;;;;;;;15.18;8.73;;;;;;;14.24;58.97;95327.41;4142469;28;20182;-54
2022/05/06 06:24:52;;;;;;;19.35;9.63;;;;;;;14.10;59.00;95328.91;4142285;28;20050;-54
2022/05/06 06:26:54;;;;;;;9.88;7.63;;;;;;;14.15;59.17;95334.50;4142895;28;20439;-55
2022/05/06 06:28:55;;;;;;;15.20;8.90;;;;;;;14.33;58.71;95337.78;4142782;28;20058;-53
2022/05/06 06:30:57;;;;;;;14.10;8.23;;;;;;;14.27;59.13;95333.16;4142470;28;20089;-56
2022/05/06 06:32:59;;;;;;;11.38;8.68;;;;;;;13.79;59.85;95324.28;4142410;28;20115;-51
2022/05/06 06:35:00;;;;;;;14.82;9.25;;;;;;;14.00;60.33;95325.59;4142630;28;20058;-54
2022/05/06 06:37:02;;;;;;;14.00;9.82;;;;;;;14.16;59.77;95317.72;4142815;28;20053;-55
2022/05/06 06:39:04;;;;;;;15.23;9.02;;;;;;;14.31;59.39;95320.50;4141432;28;20057;-55
2022/05/06 06:41:06;;;;;;;19.33;9.25;;;;;;;14.44;59.43;95325.25;4142750;28;20069;-55
2022/05/06 06:43:12;;;;;;;18.67;9.45;;;;;;;14.52;59.20;95323.44;4141369;28;20193;-53
2022/05/06 06:45:13;;;;;;;19.70;9.40;;;;;;;14.66;58.16;95321.13;4142582;28;20453;-54
2022/05/06 06:47:15;;;;;;;15.48;9.07;;;;;;;14.81;57.75;95318.59;4142637;28;20046;-56
2022/05/06 06:49:17;;;;;;;16.65;10.05;;;;;;;14.87;57.45;95320.56;4142013;28;20054;-57
2022/05/06 06:51:19;;;;;;;19.75;8.95;;;;;;;15.01;57.73;95313.72;4142075;28;20115;-54
2022/05/06 06:53:20;;;;;;;13.23;9.10;;;;;;;15.11;56.99;95319.63;4139392;28;20110;-51
2022/05/06 06:55:22;;;;;;;14.98;8.73;;;;;;;15.24;56.51;95321.72;4142229;28;20104;-51
2022/05/06 06:57:26;;;;;;;16.45;8.98;;;;;;;15.30;55.86;95321.84;4142457;28;20057;-53
2022/05/06 06:59:28;;;;;;;13.15;7.80;;;;;;;15.34;55.74;95317.06;4140502;28;20467;-56
2022/05/06 07:01:32;;;;;;;12.18;7.47;;;;;;;15.15;55.63;95320.94;4141855;28;20054;-55
2022/05/06 07:03:34;;;;;;;12.10;8.32;;;;;;;14.69;56.08;95318.97;4142118;28;20330;-55
2022/05/06 07:05:36;;;;;;;12.40;8.27;;;;;;;14.64;56.38;95326.53;4142404;28;20057;-53
2022/05/06 07:13:03;;;;;;;8.85;6.35;;;;;;;14.69;56.09;95321.59;4142502;28;20104;-57
2022/05/06 07:15:06;;;;;;;13.00;6.53;;;;;;;14.80;56.09;95319.56;4142303;28;20053;-55
2022/05/06 07:17:07;;;;;;;10.52;5.82;;;;;;;14.71;55.79;95324.91;4155699;28;20068;-55
2022/05/06 07:19:09;;;;;;;9.05;6.22;;;;;;;14.71;56.09;95319.63;4156707;28;20058;-55
2022/05/06 07:21:11;;;;;;;9.32;6.30;;;;;;;14.82;56.36;95315.81;4154521;28;20072;-53
2022/05/06 07:23:12;;;;;;;11.60;6.60;;;;;;;15.06;55.37;95316.69;4140667;28;20057;-55
2022/05/06 07:25:14;;;;;;;10.93;6.72;;;;;;;15.14;54.95;95319.28;4142388;28;20497;-56
2022/05/06 07:27:18;;;;;;;12.27;7.00;;;;;;;15.34;55.13;95319.69;4141913;28;20088;-52
2022/05/06 07:29:19;;;;;;;16.00;6.00;;;;;;;15.57;54.27;95315.28;4142113;28;20441;-55
2022/05/06 07:31:21;;;;;;;9.10;5.60;;;;;;;15.48;53.80;95311.03;4142323;28;20491;-54
2022/05/06 07:33:23;;;;;;;12.52;6.53;;;;;;;15.39;54.48;95312.06;4141546;28;20137;-56
2022/05/06 07:35:25;;;;;;;11.70;6.18;;;;;;;15.57;53.91;95314.44;4141822;28;20076;-55
2022/05/06 07:37:33;;;;;;;12.50;5.72;;;;;;;15.87;53.98;95319.88;4142272;28;20046;-54
2022/05/06 07:39:34;;;;;;;10.07;5.70;;;;;;;16.21;53.56;95313.34;4140753;28;20446;-53
2022/05/06 07:41:37;;;;;;;8.23;5.60;;;;;;;16.47;52.43;95310.28;4142035;28;20535;-55
2022/05/06 07:43:39;;;;;;;8.85;5.05;;;;;;;16.65;52.08;95310.78;4141791;28;20057;-55
2022/05/06 07:45:44;;;;;;;8.27;6.05;;;;;;;16.83;51.46;95313.06;4141830;28;20057;-55
2022/05/06 07:47:46;;;;;;;10.18;6.00;;;;;;;16.67;50.65;95314.06;4140221;28;20133;-54
2022/05/06 07:49:55;;;;;;;9.73;5.40;;;;;;;16.39;51.61;95313.84;4134923;28;20454;-53
2022/05/06 07:51:57;;;;;;;6.95;5.03;;;;;;;16.32;52.50;95307.63;4141857;28;20081;-55
2022/05/06 07:54:00;;;;;;;8.18;4.80;;;;;;;16.46;52.24;95314.75;4140068;28;20538;-53
2022/05/06 07:56:01;;;;;;;10.75;5.53;;;;;;;16.51;51.52;95301.81;4140152;28;20515;-54
2022/05/06 07:58:04;;;;;;;8.27;5.22;;;;;;;16.35;51.85;95305.44;4141910;28;20053;-52
2022/05/06 08:00:07;;;;;;;6.50;4.63;;;;;;;16.48;51.88;95298.72;4138037;28;20068;-54
2022/05/06 08:04:37;;;;;;;5.80;4.35;;;;;;;16.57;51.04;95309.03;4144445;28;20054;-56
2022/05/06 08:06:38;;;;;;;7.80;4.90;;;;;;;16.76;50.83;95307.66;4144808;28;20111;-54
2022/05/06 08:08:40;;;;;;;8.13;4.40;;;;;;;16.86;50.30;95299.47;4143238;28;20475;-53
2022/05/06 08:10:44;;;;;;;7.50;4.80;;;;;;;16.99;50.45;95306.75;4144940;28;20354;-54
2022/05/06 08:12:46;;;;;;;10.52;5.03;;;;;;;17.02;50.56;95306.41;4144483;28;20088;-56
2022/05/06 08:14:48;;;;;;;9.40;4.70;;;;;;;17.17;49.86;95299.28;4144888;28;20200;-55
2022/05/06 08:16:50;;;;;;;7.95;4.90;;;;;;;17.40;49.79;95293.00;4145069;28;20115;-56
2022/05/06 08:18:52;;;;;;;11.60;5.20;;;;;;;17.65;49.50;95292.66;4144546;28;20050;-58
2022/05/06 08:20:54;;;;;;;7.35;5.15;;;;;;;17.85;49.73;95291.06;4143134;28;20056;-53
2022/05/06 08:22:56;;;;;;;6.95;4.20;;;;;;;17.95;49.08;95294.22;4127445;28;20109;-54
2022/05/06 08:24:57;;;;;;;7.72;4.80;;;;;;;18.08;48.97;95298.81;4128189;28;20066;-55
2022/05/06 08:27:19;;;;;;;8.07;4.93;;;;;;;18.21;48.68;95296.25;4128295;28;20074;-54
2022/05/06 08:29:22;;;;;;;10.52;5.35;;;;;;;18.27;48.37;95293.88;4128333;28;20058;-57
2022/05/06 08:31:24;;;;;;;7.80;4.95;;;;;;;18.31;48.03;95295.94;4128289;28;20132;-57
2022/05/06 08:33:26;;;;;;;7.20;5.07;;;;;;;18.17;48.68;95289.69;4127797;28;20312;-56
2022/05/06 08:35:28;;;;;;;8.70;5.50;;;;;;;18.19;48.60;95292.16;4128001;28;20475;-51
2022/05/06 08:37:39;;;;;;;6.70;4.72;;;;;;;18.31;49.17;95295.13;4128340;28;20042;-52
2022/05/06 08:39:41;;;;;;;10.40;5.20;;;;;;;18.44;49.34;95294.41;4126735;28;20066;-52
2022/05/06 08:41:43;;;;;;;6.63;5.10;;;;;;;18.58;49.04;95285.50;4127723;28;20054;-56
2022/05/06 08:43:45;;;;;;;8.65;5.30;;;;;;;18.77;48.22;95289.31;4127952;28;20606;-51
2022/05/06 08:50:52;;;;;;;7.20;4.38;;;;;;;19.29;47.21;95290.59;4143756;28;20058;-56
2022/05/06 08:52:54;;;;;;;7.15;4.30;;;;;;;19.15;46.66;95292.41;4141834;28;20104;-55
2022/05/06 08:54:56;;;;;;;7.90;4.90;;;;;;;18.92;46.91;95291.88;4143725;28;20203;-54
2022/05/06 08:56:59;;;;;;;7.68;4.55;;;;;;;18.72;47.46;95289.09;4143874;28;20065;-56
2022/05/06 08:59:00;;;;;;;11.63;4.72;;;;;;;18.63;47.81;95285.78;4144153;28;20624;-55
2022/05/06 09:01:06;;;;;;;5.45;4.40;;;;;;;18.32;48.09;95292.25;4143057;28;20066;-56
2022/05/06 09:03:17;;;;;;;7.78;4.75;;;;;;;18.40;48.45;95286.00;4142791;28;20085;-56
2022/05/06 09:05:20;;;;;;;6.88;4.68;;;;;;;18.34;48.08;95292.09;4143962;28;20340;-53
2022/05/06 09:07:24;;;;;;;6.88;4.18;;;;;;;18.46;48.55;95289.75;4144029;28;20102;-53
2022/05/06 09:09:25;;;;;;;12.30;4.63;;;;;;;18.68;48.13;95286.00;4142389;28;20432;-56
2022/05/06 09:13:49;;;;;;;9.05;4.10;;;;;;;18.42;48.65;95290.09;4143650;28;20187;-51
2022/05/06 09:18:19;;;;;;;4.70;4.00;;;;;;;18.16;48.08;95274.81;4143402;28;20053;-51
2022/05/06 09:20:27;;;;;;;5.03;4.03;;;;;;;18.36;48.08;95276.78;4144106;28;20132;-56
2022/05/06 09:22:29;;;;;;;6.13;4.53;;;;;;;18.58;47.54;95274.91;4143536;28;20054;-55
2022/05/06 09:24:35;;;;;;;7.32;4.20;;;;;;;18.51;47.52;95274.84;4141882;28;20061;-54
2022/05/06 09:26:37;;;;;;;6.10;4.68;;;;;;;18.70;47.34;95269.88;4143534;28;20042;-53
2022/05/06 09:28:38;;;;;;;5.30;4.30;;;;;;;18.92;47.27;95268.78;4143408;28;20076;-52
2022/05/06 09:31:00;;;;;;;7.13;4.60;;;;;;;18.97;46.87;95260.22;4143872;28;20066;-55
2022/05/06 09:33:02;;;;;;;5.93;4.25;;;;;;;19.05;47.16;95254.75;4143325;28;20058;-56
2022/05/06 09:35:07;;;;;;;7.30;4.07;;;;;;;19.00;46.70;95257.19;4143494;28;20065;-54
2022/05/06 09:37:09;;;;;;;7.78;4.70;;;;;;;19.06;46.48;95251.09;4143294;28;20116;-53
2022/05/06 09:39:11;;;;;;;6.38;4.07;;;;;;;18.96;46.54;95253.31;4141872;28;20434;-51
2022/05/06 09:41:20;;;;;;;5.40;3.67;;;;;;;19.04;46.65;95253.13;4143421;28;20340;-51
2022/05/06 09:43:21;;;;;;;7.53;4.03;;;;;;;19.20;45.95;95244.81;4143441;28;20578;-54
2022/05/06 09:45:39;;;;;;;10.98;4.30;;;;;;;19.33;45.89;95244.03;4143615;28;20066;-53
2022/05/06 09:47:42;;;;;;;8.73;3.90;;;;;;;19.39;45.51;95245.06;4140478;28;20049;-54
2022/05/06 09:49:45;;;;;;;5.95;4.05;;;;;;;19.36;46.05;95241.00;4135784;28;20083;-56
2022/05/06 09:51:47;;;;;;;6.55;4.18;;;;;;;19.55;45.90;95244.72;4139552;28;20066;-56
2022/05/06 09:53:49;;;;;;;6.40;3.97;;;;;;;19.53;45.28;95238.78;4139843;28;20045;-53
2022/05/06 09:55:50;;;;;;;6.55;4.40;;;;;;;19.46;44.19;95234.47;4143089;28;20119;-55
2022/05/06 09:57:53;;;;;;;8.98;3.85;;;;;;;19.34;44.68;95242.22;4143112;28;20077;-54
2022/05/06 09:59:54;;;;;;;5.20;3.95;;;;;;;19.11;44.54;95253.16;4141774;28;20046;-54
2022/05/06 10:01:56;;;;;;;4.97;4.00;;;;;;;19.13;44.22;95241.31;4142028;28;20169;-56
2022/05/06 10:03:58;;;;;;;7.60;3.85;;;;;;;19.19;44.79;95245.03;4141546;28;20398;-55